sensor_id;sensor_type;location;lat;lon;timestamp;P1;durP1;ratioP1;P2;durP2;ratioP2
14342;SDS011;7255;53.596;9.960;2023-10-08T00:01:19;13.55;;;6.32;;
14342;SDS011;7255;53.596;9.960;2023-10-08T00:03:46;17.42;;;6.15;;
14342;SDS011;7255;53.596;9.960;2023-10-08T00:06:15;14.32;;;5.87;;
14342;SDS011;7255;53.596;9.960;2023-10-08T00:08:44;15.40;;;6.10;;
14342;SDS011;7255;53.596;9.960;2023-10-08T00:11:11;11.68;;;5.43;;
14342;SDS011;7255;53.596;9.960;2023-10-08T00:13:40;10.40;;;5.60;;
14342;SDS011;7255;53.596;9.960;2023-10-08T00:16:07;11.60;;;5.65;;
14342;SDS011;7255;53.596;9.960;2023-10-08T00:18:37;12.88;;;5.25;;
14342;SDS011;7255;53.596;9.960;2023-10-08T00:21:06;14.43;;;6.47;;
14342;SDS011;7255;53.596;9.960;2023-10-08T00:23:42;13.02;;;5.80;;
14342;SDS011;7255;53.596;9.960;2023-10-08T00:26:13;13.88;;;6.22;;
14342;SDS011;7255;53.596;9.960;2023-10-08T00:28:43;7.68;;;4.68;;
14342;SDS011;7255;53.596;9.960;2023-10-08T00:31:12;10.18;;;5.05;;
14342;SDS011;7255;53.596;9.960;2023-10-08T00:33:43;17.10;;;5.10;;
14342;SDS011;7255;53.596;9.960;2023-10-08T00:36:10;10.13;;;5.03;;
14342;SDS011;7255;53.596;9.960;2023-10-08T00:38:44;12.30;;;4.85;;
14342;SDS011;7255;53.596;9.960;2023-10-08T00:41:12;16.35;;;4.55;;
14342;SDS011;7255;53.596;9.960;2023-10-08T00:43:39;11.70;;;4.82;;
14342;SDS011;7255;53.596;9.960;2023-10-08T00:46:06;14.52;;;5.00;;
14342;SDS011;7255;53.596;9.960;2023-10-08T00:48:44;12.15;;;3.80;;
14342;SDS011;7255;53.596;9.960;2023-10-08T00:51:12;13.55;;;4.10;;
14342;SDS011;7255;53.596;9.960;2023-10-08T00:53:52;10.52;;;3.55;;
14342;SDS011;7255;53.596;9.960;2023-10-08T00:56:22;7.18;;;3.75;;
14342;SDS011;7255;53.596;9.960;2023-10-08T00:58:50;6.03;;;2.58;;
14342;SDS011;7255;53.596;9.960;2023-10-08T01:01:19;7.53;;;3.40;;
14342;SDS011;7255;53.596;9.960;2023-10-08T01:03:48;11.15;;;3.45;;
14342;SDS011;7255;53.596;9.960;2023-10-08T01:06:15;10.25;;;3.22;;
14342;SDS011;7255;53.596;9.960;2023-10-08T01:08:45;9.18;;;3.22;;
14342;SDS011;7255;53.596;9.960;2023-10-08T01:11:17;8.85;;;3.05;;
14342;SDS011;7255;53.596;9.960;2023-10-08T01:13:45;5.68;;;3.03;;
14342;SDS011;7255;53.596;9.960;2023-10-08T01:16:12;8.45;;;3.58;;
14342;SDS011;7255;53.596;9.960;2023-10-08T01:18:39;10.52;;;3.30;;
14342;SDS011;7255;53.596;9.960;2023-10-08T01:21:10;12.05;;;3.35;;
14342;SDS011;7255;53.596;9.960;2023-10-08T01:23:45;8.10;;;3.33;;
14342;SDS011;7255;53.596;9.960;2023-10-08T01:26:13;8.40;;;3.22;;
14342;SDS011;7255;53.596;9.960;2023-10-08T01:28:40;5.05;;;3.17;;
14342;SDS011;7255;53.596;9.960;2023-10-08T01:31:08;7.07;;;3.37;;
14342;SDS011;7255;53.596;9.960;2023-10-08T01:33:37;10.60;;;3.10;;
14342;SDS011;7255;53.596;9.960;2023-10-08T01:36:11;5.70;;;3.20;;
14342;SDS011;7255;53.596;9.960;2023-10-08T01:38:38;9.50;;;3.05;;
14342;SDS011;7255;53.596;9.960;2023-10-08T01:41:08;9.98;;;3.30;;
14342;SDS011;7255;53.596;9.960;2023-10-08T01:43:43;11.35;;;2.72;;
14342;SDS011;7255;53.596;9.960;2023-10-08T01:46:10;10.98;;;3.28;;
14342;SDS011;7255;53.596;9.960;2023-10-08T01:48:37;12.60;;;3.03;;
14342;SDS011;7255;53.596;9.960;2023-10-08T01:51:04;7.75;;;3.17;;
14342;SDS011;7255;53.596;9.960;2023-10-08T01:53:35;7.60;;;3.00;;
14342;SDS011;7255;53.596;9.960;2023-10-08T01:56:01;7.90;;;2.92;;
14342;SDS011;7255;53.596;9.960;2023-10-08T01:58:30;6.35;;;3.15;;
14342;SDS011;7255;53.596;9.960;2023-10-08T02:00:58;5.12;;;2.62;;
14342;SDS011;7255;53.596;9.960;2023-10-08T02:03:25;13.07;;;3.30;;
14342;SDS011;7255;53.596;9.960;2023-10-08T02:05:53;12.10;;;3.17;;
14342;SDS011;7255;53.596;9.960;2023-10-08T02:08:24;11.30;;;3.22;;
14342;SDS011;7255;53.596;9.960;2023-10-08T02:10:51;7.47;;;2.65;;
14342;SDS011;7255;53.596;9.960;2023-10-08T02:13:18;10.20;;;3.12;;
14342;SDS011;7255;53.596;9.960;2023-10-08T02:15:48;8.13;;;3.10;;
14342;SDS011;7255;53.596;9.960;2023-10-08T02:18:16;6.68;;;2.78;;
14342;SDS011;7255;53.596;9.960;2023-10-08T02:20:43;6.85;;;2.80;;
14342;SDS011;7255;53.596;9.960;2023-10-08T02:23:10;6.35;;;2.65;;
14342;SDS011;7255;53.596;9.960;2023-10-08T02:25:37;9.35;;;2.10;;
14342;SDS011;7255;53.596;9.960;2023-10-08T02:28:05;6.18;;;2.58;;
14342;SDS011;7255;53.596;9.960;2023-10-08T02:30:33;5.70;;;2.42;;
14342;SDS011;7255;53.596;9.960;2023-10-08T02:33:01;3.80;;;1.85;;
14342;SDS011;7255;53.596;9.960;2023-10-08T02:35:27;4.55;;;2.22;;
14342;SDS011;7255;53.596;9.960;2023-10-08T02:37:53;6.97;;;1.98;;
14342;SDS011;7255;53.596;9.960;2023-10-08T02:40:20;2.83;;;1.73;;
14342;SDS011;7255;53.596;9.960;2023-10-08T02:42:52;6.95;;;2.10;;
14342;SDS011;7255;53.596;9.960;2023-10-08T02:45:22;4.97;;;2.20;;
14342;SDS011;7255;53.596;9.960;2023-10-08T02:47:50;5.20;;;2.10;;
14342;SDS011;7255;53.596;9.960;2023-10-08T02:50:19;8.00;;;2.00;;
14342;SDS011;7255;53.596;9.960;2023-10-08T02:52:47;5.60;;;2.17;;
14342;SDS011;7255;53.596;9.960;2023-10-08T02:55:15;5.65;;;2.05;;
14342;SDS011;7255;53.596;9.960;2023-10-08T02:57:53;5.60;;;2.87;;
14342;SDS011;7255;53.596;9.960;2023-10-08T03:00:21;6.53;;;1.98;;
14342;SDS011;7255;53.596;9.960;2023-10-08T03:02:48;7.50;;;2.20;;
14342;SDS011;7255;53.596;9.960;2023-10-08T03:05:14;5.22;;;2.03;;
14342;SDS011;7255;53.596;9.960;2023-10-08T03:07:45;6.07;;;1.87;;
14342;SDS011;7255;53.596;9.960;2023-10-08T03:10:16;5.30;;;1.75;;
14342;SDS011;7255;53.596;9.960;2023-10-08T03:12:43;6.40;;;2.00;;
14342;SDS011;7255;53.596;9.960;2023-10-08T03:15:11;3.20;;;1.85;;
14342;SDS011;7255;53.596;9.960;2023-10-08T03:17:39;4.68;;;1.45;;
14342;SDS011;7255;53.596;9.960;2023-10-08T03:20:13;4.75;;;2.17;;
14342;SDS011;7255;53.596;9.960;2023-10-08T03:22:55;3.33;;;1.62;;
14342;SDS011;7255;53.596;9.960;2023-10-08T03:25:23;5.78;;;2.00;;
14342;SDS011;7255;53.596;9.960;2023-10-08T03:27:50;6.82;;;1.52;;
14342;SDS011;7255;53.596;9.960;2023-10-08T03:30:19;4.40;;;1.60;;
14342;SDS011;7255;53.596;9.960;2023-10-08T03:32:46;8.20;;;1.85;;
14342;SDS011;7255;53.596;9.960;2023-10-08T03:35:15;8.35;;;1.70;;
14342;SDS011;7255;53.596;9.960;2023-10-08T03:37:52;4.40;;;1.83;;
14342;SDS011;7255;53.596;9.960;2023-10-08T03:40:20;3.20;;;1.75;;
14342;SDS011;7255;53.596;9.960;2023-10-08T03:42:57;1.92;;;1.33;;
14342;SDS011;7255;53.596;9.960;2023-10-08T03:45:23;4.65;;;1.40;;
14342;SDS011;7255;53.596;9.960;2023-10-08T03:48:07;3.65;;;1.70;;
14342;SDS011;7255;53.596;9.960;2023-10-08T03:50:40;5.18;;;1.60;;
14342;SDS011;7255;53.596;9.960;2023-10-08T03:53:08;6.53;;;1.55;;
14342;SDS011;7255;53.596;9.960;2023-10-08T03:55:38;5.53;;;1.80;;
14342;SDS011;7255;53.596;9.960;2023-10-08T03:58:06;4.30;;;1.60;;
14342;SDS011;7255;53.596;9.960;2023-10-08T04:00:48;4.70;;;1.73;;
14342;SDS011;7255;53.596;9.960;2023-10-08T04:03:15;6.18;;;1.60;;
14342;SDS011;7255;53.596;9.960;2023-10-08T04:05:48;2.92;;;1.50;;
14342;SDS011;7255;53.596;9.960;2023-10-08T04:08:28;5.05;;;1.90;;
14342;SDS011;7255;53.596;9.960;2023-10-08T04:11:10;2.53;;;1.48;;
14342;SDS011;7255;53.596;9.960;2023-10-08T04:13:53;8.77;;;2.05;;
14342;SDS011;7255;53.596;9.960;2023-10-08T04:16:20;2.22;;;1.50;;
14342;SDS011;7255;53.596;9.960;2023-10-08T04:18:46;3.28;;;1.55;;
14342;SDS011;7255;53.596;9.960;2023-10-08T04:21:15;6.05;;;1.85;;
14342;SDS011;7255;53.596;9.960;2023-10-08T04:23:45;2.00;;;1.50;;
14342;SDS011;7255;53.596;9.960;2023-10-08T04:26:17;5.50;;;1.95;;
14342;SDS011;7255;53.596;9.960;2023-10-08T04:28:48;4.47;;;1.60;;
14342;SDS011;7255;53.596;9.960;2023-10-08T04:31:15;5.37;;;2.05;;
14342;SDS011;7255;53.596;9.960;2023-10-08T04:33:42;3.15;;;1.65;;
14342;SDS011;7255;53.596;9.960;2023-10-08T04:36:09;1.67;;;1.35;;
14342;SDS011;7255;53.596;9.960;2023-10-08T04:38:43;3.83;;;1.80;;
14342;SDS011;7255;53.596;9.960;2023-10-08T04:41:12;2.85;;;1.75;;
14342;SDS011;7255;53.596;9.960;2023-10-08T04:43:43;8.82;;;1.52;;
14342;SDS011;7255;53.596;9.960;2023-10-08T04:46:10;3.97;;;1.80;;
14342;SDS011;7255;53.596;9.960;2023-10-08T04:48:44;3.75;;;1.65;;
14342;SDS011;7255;53.596;9.960;2023-10-08T04:51:11;4.18;;;1.70;;
14342;SDS011;7255;53.596;9.960;2023-10-08T04:53:38;3.58;;;1.90;;
14342;SDS011;7255;53.596;9.960;2023-10-08T04:56:09;4.72;;;1.50;;
14342;SDS011;7255;53.596;9.960;2023-10-08T04:58:39;2.35;;;1.45;;
14342;SDS011;7255;53.596;9.960;2023-10-08T05:01:08;7.37;;;1.70;;
14342;SDS011;7255;53.596;9.960;2023-10-08T05:03:43;5.18;;;1.42;;
14342;SDS011;7255;53.596;9.960;2023-10-08T05:06:32;5.32;;;1.58;;
14342;SDS011;7255;53.596;9.960;2023-10-08T05:09:26;3.97;;;1.90;;
14342;SDS011;7255;53.596;9.960;2023-10-08T05:12:04;2.35;;;1.60;;
14342;SDS011;7255;53.596;9.960;2023-10-08T05:14:53;3.72;;;1.50;;
14342;SDS011;7255;53.596;9.960;2023-10-08T05:17:43;7.97;;;1.50;;
14342;SDS011;7255;53.596;9.960;2023-10-08T05:20:21;6.53;;;2.05;;
14342;SDS011;7255;53.596;9.960;2023-10-08T05:23:06;3.50;;;1.60;;
14342;SDS011;7255;53.596;9.960;2023-10-08T05:25:45;3.00;;;1.50;;
14342;SDS011;7255;53.596;9.960;2023-10-08T05:28:23;3.95;;;1.77;;
14342;SDS011;7255;53.596;9.960;2023-10-08T05:30:49;6.62;;;1.42;;
14342;SDS011;7255;53.596;9.960;2023-10-08T05:33:21;3.67;;;1.90;;
14342;SDS011;7255;53.596;9.960;2023-10-08T05:35:50;2.70;;;1.30;;
14342;SDS011;7255;53.596;9.960;2023-10-08T05:38:27;3.00;;;1.20;;
14342;SDS011;7255;53.596;9.960;2023-10-08T05:41:12;6.22;;;1.50;;
14342;SDS011;7255;53.596;9.960;2023-10-08T05:43:56;5.53;;;1.30;;
14342;SDS011;7255;53.596;9.960;2023-10-08T05:46:36;1.48;;;1.25;;
14342;SDS011;7255;53.596;9.960;2023-10-08T05:49:33;3.55;;;1.40;;
14342;SDS011;7255;53.596;9.960;2023-10-08T05:52:08;2.95;;;1.55;;
14342;SDS011;7255;53.596;9.960;2023-10-08T05:54:50;2.28;;;1.65;;
14342;SDS011;7255;53.596;9.960;2023-10-08T05:57:34;2.47;;;1.40;;
14342;SDS011;7255;53.596;9.960;2023-10-08T06:00:05;1.90;;;1.30;;
14342;SDS011;7255;53.596;9.960;2023-10-08T06:02:50;1.65;;;1.37;;
14342;SDS011;7255;53.596;9.960;2023-10-08T06:05:34;3.28;;;1.50;;
14342;SDS011;7255;53.596;9.960;2023-10-08T06:08:08;2.20;;;1.58;;
14342;SDS011;7255;53.596;9.960;2023-10-08T06:10:40;3.42;;;1.75;;
14342;SDS011;7255;53.596;9.960;2023-10-08T06:13:12;4.35;;;1.75;;
14342;SDS011;7255;53.596;9.960;2023-10-08T06:15:42;2.47;;;1.50;;
14342;SDS011;7255;53.596;9.960;2023-10-08T06:18:17;4.22;;;1.70;;
14342;SDS011;7255;53.596;9.960;2023-10-08T06:20:46;3.85;;;2.12;;
14342;SDS011;7255;53.596;9.960;2023-10-08T06:23:11;1.67;;;1.30;;
14342;SDS011;7255;53.596;9.960;2023-10-08T06:25:43;3.37;;;1.60;;
14342;SDS011;7255;53.596;9.960;2023-10-08T06:28:12;3.05;;;1.23;;
14342;SDS011;7255;53.596;9.960;2023-10-08T06:30:40;5.22;;;1.73;;
14342;SDS011;7255;53.596;9.960;2023-10-08T06:33:07;4.37;;;1.60;;
14342;SDS011;7255;53.596;9.960;2023-10-08T06:35:33;5.37;;;1.60;;
14342;SDS011;7255;53.596;9.960;2023-10-08T06:38:02;3.75;;;1.77;;
14342;SDS011;7255;53.596;9.960;2023-10-08T06:40:32;4.25;;;2.15;;
14342;SDS011;7255;53.596;9.960;2023-10-08T06:43:08;1.55;;;1.30;;
14342;SDS011;7255;53.596;9.960;2023-10-08T06:45:39;3.15;;;1.60;;
14342;SDS011;7255;53.596;9.960;2023-10-08T06:48:06;2.65;;;1.23;;
14342;SDS011;7255;53.596;9.960;2023-10-08T06:50:33;4.82;;;1.87;;
14342;SDS011;7255;53.596;9.960;2023-10-08T06:53:02;4.03;;;1.62;;
14342;SDS011;7255;53.596;9.960;2023-10-08T06:55:32;2.10;;;1.65;;
14342;SDS011;7255;53.596;9.960;2023-10-08T06:58:00;3.62;;;1.60;;
14342;SDS011;7255;53.596;9.960;2023-10-08T07:00:30;5.78;;;1.60;;
14342;SDS011;7255;53.596;9.960;2023-10-08T07:03:04;5.43;;;1.40;;
14342;SDS011;7255;53.596;9.960;2023-10-08T07:05:33;1.95;;;1.50;;
14342;SDS011;7255;53.596;9.960;2023-10-08T07:08:02;3.15;;;1.58;;
14342;SDS011;7255;53.596;9.960;2023-10-08T07:10:31;3.55;;;1.75;;
14342;SDS011;7255;53.596;9.960;2023-10-08T07:12:59;1.80;;;1.70;;
14342;SDS011;7255;53.596;9.960;2023-10-08T07:15:27;5.32;;;1.60;;
14342;SDS011;7255;53.596;9.960;2023-10-08T07:17:55;1.75;;;1.25;;
14342;SDS011;7255;53.596;9.960;2023-10-08T07:20:21;3.95;;;1.73;;
14342;SDS011;7255;53.596;9.960;2023-10-08T07:22:48;3.42;;;1.75;;
14342;SDS011;7255;53.596;9.960;2023-10-08T07:25:21;7.43;;;1.90;;
14342;SDS011;7255;53.596;9.960;2023-10-08T07:27:47;3.95;;;1.87;;
14342;SDS011;7255;53.596;9.960;2023-10-08T07:30:14;6.18;;;1.80;;
14342;SDS011;7255;53.596;9.960;2023-10-08T07:32:51;2.65;;;1.60;;
14342;SDS011;7255;53.596;9.960;2023-10-08T07:35:19;7.15;;;2.17;;
14342;SDS011;7255;53.596;9.960;2023-10-08T07:37:50;1.52;;;1.40;;
14342;SDS011;7255;53.596;9.960;2023-10-08T07:40:18;2.60;;;1.70;;
14342;SDS011;7255;53.596;9.960;2023-10-08T07:42:46;1.83;;;1.50;;
14342;SDS011;7255;53.596;9.960;2023-10-08T07:45:16;7.28;;;2.03;;
14342;SDS011;7255;53.596;9.960;2023-10-08T07:47:43;2.05;;;1.60;;
14342;SDS011;7255;53.596;9.960;2023-10-08T07:50:09;1.92;;;1.62;;
14342;SDS011;7255;53.596;9.960;2023-10-08T07:52:37;1.58;;;1.40;;
14342;SDS011;7255;53.596;9.960;2023-10-08T07:55:04;5.03;;;1.70;;
14342;SDS011;7255;53.596;9.960;2023-10-08T07:57:33;5.00;;;1.30;;
14342;SDS011;7255;53.596;9.960;2023-10-08T07:59:59;1.80;;;1.45;;
14342;SDS011;7255;53.596;9.960;2023-10-08T08:02:43;1.73;;;1.30;;
14342;SDS011;7255;53.596;9.960;2023-10-08T08:05:09;4.10;;;1.65;;
14342;SDS011;7255;53.596;9.960;2023-10-08T08:07:40;3.33;;;1.20;;
14342;SDS011;7255;53.596;9.960;2023-10-08T08:10:08;6.37;;;1.30;;
14342;SDS011;7255;53.596;9.960;2023-10-08T08:12:37;1.95;;;1.48;;
14342;SDS011;7255;53.596;9.960;2023-10-08T08:15:03;1.70;;;1.50;;
14342;SDS011;7255;53.596;9.960;2023-10-08T08:17:40;5.78;;;1.52;;
14342;SDS011;7255;53.596;9.960;2023-10-08T08:20:07;4.10;;;1.65;;
14342;SDS011;7255;53.596;9.960;2023-10-08T08:22:42;4.37;;;1.35;;
14342;SDS011;7255;53.596;9.960;2023-10-08T08:25:14;2.45;;;1.20;;
14342;SDS011;7255;53.596;9.960;2023-10-08T08:27:42;8.40;;;2.05;;
14342;SDS011;7255;53.596;9.960;2023-10-08T08:30:12;1.65;;;1.48;;
14342;SDS011;7255;53.596;9.960;2023-10-08T08:32:41;2.92;;;1.73;;
14342;SDS011;7255;53.596;9.960;2023-10-08T08:35:08;4.53;;;1.30;;
14342;SDS011;7255;53.596;9.960;2023-10-08T08:37:36;5.28;;;1.40;;
14342;SDS011;7255;53.596;9.960;2023-10-08T08:40:03;4.50;;;1.40;;
14342;SDS011;7255;53.596;9.960;2023-10-08T08:42:33;3.10;;;1.52;;
14342;SDS011;7255;53.596;9.960;2023-10-08T08:45:02;5.50;;;1.55;;
14342;SDS011;7255;53.596;9.960;2023-10-08T08:47:33;4.10;;;1.08;;
14342;SDS011;7255;53.596;9.960;2023-10-08T08:50:01;6.20;;;1.12;;
14342;SDS011;7255;53.596;9.960;2023-10-08T08:52:33;2.22;;;1.50;;
14342;SDS011;7255;53.596;9.960;2023-10-08T08:55:02;4.68;;;1.50;;
14342;SDS011;7255;53.596;9.960;2023-10-08T08:57:31;1.40;;;1.23;;
14342;SDS011;7255;53.596;9.960;2023-10-08T08:59:58;4.80;;;1.20;;
14342;SDS011;7255;53.596;9.960;2023-10-08T09:02:26;9.93;;;1.85;;
14342;SDS011;7255;53.596;9.960;2023-10-08T09:04:52;2.75;;;1.30;;
14342;SDS011;7255;53.596;9.960;2023-10-08T09:07:19;4.47;;;1.42;;
14342;SDS011;7255;53.596;9.960;2023-10-08T09:09:47;1.23;;;1.00;;
14342;SDS011;7255;53.596;9.960;2023-10-08T09:12:15;3.17;;;1.33;;
14342;SDS011;7255;53.596;9.960;2023-10-08T09:14:42;5.15;;;1.65;;
14342;SDS011;7255;53.596;9.960;2023-10-08T09:17:09;2.10;;;1.17;;
14342;SDS011;7255;53.596;9.960;2023-10-08T09:19:38;2.92;;;1.20;;
14342;SDS011;7255;53.596;9.960;2023-10-08T09:22:05;5.62;;;1.35;;
14342;SDS011;7255;53.596;9.960;2023-10-08T09:24:32;1.92;;;0.90;;
14342;SDS011;7255;53.596;9.960;2023-10-08T09:27:01;4.05;;;1.23;;
14342;SDS011;7255;53.596;9.960;2023-10-08T09:29:28;2.17;;;1.23;;
14342;SDS011;7255;53.596;9.960;2023-10-08T09:31:55;3.03;;;1.27;;
14342;SDS011;7255;53.596;9.960;2023-10-08T09:34:24;1.73;;;1.00;;
14342;SDS011;7255;53.596;9.960;2023-10-08T09:36:54;1.05;;;1.05;;
14342;SDS011;7255;53.596;9.960;2023-10-08T09:39:25;2.95;;;1.20;;
14342;SDS011;7255;53.596;9.960;2023-10-08T09:41:53;2.60;;;1.23;;
14342;SDS011;7255;53.596;9.960;2023-10-08T09:44:21;4.10;;;1.05;;
14342;SDS011;7255;53.596;9.960;2023-10-08T09:46:51;1.75;;;1.20;;
14342;SDS011;7255;53.596;9.960;2023-10-08T09:49:19;0.95;;;0.95;;
14342;SDS011;7255;53.596;9.960;2023-10-08T09:51:49;4.82;;;1.50;;
14342;SDS011;7255;53.596;9.960;2023-10-08T09:54:20;1.95;;;0.98;;
14342;SDS011;7255;53.596;9.960;2023-10-08T09:56:57;2.80;;;1.12;;
14342;SDS011;7255;53.596;9.960;2023-10-08T09:59:25;1.77;;;1.00;;
14342;SDS011;7255;53.596;9.960;2023-10-08T10:01:53;2.47;;;1.00;;
14342;SDS011;7255;53.596;9.960;2023-10-08T10:04:24;1.50;;;1.20;;
14342;SDS011;7255;53.596;9.960;2023-10-08T10:06:53;3.47;;;0.95;;
14342;SDS011;7255;53.596;9.960;2023-10-08T10:09:24;1.27;;;1.05;;
14342;SDS011;7255;53.596;9.960;2023-10-08T10:11:52;3.72;;;1.30;;
14342;SDS011;7255;53.596;9.960;2023-10-08T10:14:22;0.95;;;0.90;;
14342;SDS011;7255;53.596;9.960;2023-10-08T10:16:48;2.90;;;1.08;;
14342;SDS011;7255;53.596;9.960;2023-10-08T10:19:34;2.87;;;1.00;;
14342;SDS011;7255;53.596;9.960;2023-10-08T10:22:02;1.15;;;0.90;;
14342;SDS011;7255;53.596;9.960;2023-10-08T10:24:33;1.42;;;0.88;;
14342;SDS011;7255;53.596;9.960;2023-10-08T10:27:09;2.72;;;1.15;;
14342;SDS011;7255;53.596;9.960;2023-10-08T10:29:36;3.40;;;1.20;;
14342;SDS011;7255;53.596;9.960;2023-10-08T10:32:03;2.37;;;1.10;;
14342;SDS011;7255;53.596;9.960;2023-10-08T10:34:30;4.00;;;1.10;;
14342;SDS011;7255;53.596;9.960;2023-10-08T10:36:59;3.12;;;1.05;;
14342;SDS011;7255;53.596;9.960;2023-10-08T10:39:35;0.88;;;0.88;;
14342;SDS011;7255;53.596;9.960;2023-10-08T10:42:05;2.47;;;1.10;;
14342;SDS011;7255;53.596;9.960;2023-10-08T10:44:45;0.88;;;0.80;;
14342;SDS011;7255;53.596;9.960;2023-10-08T10:47:14;1.00;;;0.80;;
14342;SDS011;7255;53.596;9.960;2023-10-08T10:49:51;3.33;;;1.15;;
14342;SDS011;7255;53.596;9.960;2023-10-08T10:52:20;1.52;;;0.98;;
14342;SDS011;7255;53.596;9.960;2023-10-08T10:54:59;0.93;;;0.80;;
14342;SDS011;7255;53.596;9.960;2023-10-08T10:57:43;3.22;;;1.12;;
14342;SDS011;7255;53.596;9.960;2023-10-08T11:00:10;2.85;;;1.00;;
14342;SDS011;7255;53.596;9.960;2023-10-08T11:03:05;0.90;;;0.80;;
14342;SDS011;7255;53.596;9.960;2023-10-08T11:05:41;1.35;;;0.90;;
14342;SDS011;7255;53.596;9.960;2023-10-08T11:08:13;2.20;;;1.00;;
14342;SDS011;7255;53.596;9.960;2023-10-08T11:10:42;0.93;;;0.82;;
14342;SDS011;7255;53.596;9.960;2023-10-08T11:13:14;2.83;;;0.95;;
14342;SDS011;7255;53.596;9.960;2023-10-08T11:15:41;1.55;;;1.42;;
14342;SDS011;7255;53.596;9.960;2023-10-08T11:18:13;2.65;;;0.88;;
14342;SDS011;7255;53.596;9.960;2023-10-08T11:20:41;1.23;;;0.82;;
14342;SDS011;7255;53.596;9.960;2023-10-08T11:23:09;1.87;;;1.02;;
14342;SDS011;7255;53.596;9.960;2023-10-08T11:25:55;2.58;;;1.10;;
14342;SDS011;7255;53.596;9.960;2023-10-08T11:28:25;1.70;;;1.00;;
14342;SDS011;7255;53.596;9.960;2023-10-08T11:30:52;1.48;;;0.82;;
14342;SDS011;7255;53.596;9.960;2023-10-08T11:33:19;1.27;;;0.88;;
14342;SDS011;7255;53.596;9.960;2023-10-08T11:35:58;1.08;;;0.80;;
14342;SDS011;7255;53.596;9.960;2023-10-08T11:38:26;2.20;;;0.80;;
14342;SDS011;7255;53.596;9.960;2023-10-08T11:40:53;1.62;;;1.00;;
14342;SDS011;7255;53.596;9.960;2023-10-08T11:43:22;2.83;;;0.90;;
14342;SDS011;7255;53.596;9.960;2023-10-08T11:45:49;1.87;;;1.00;;
14342;SDS011;7255;53.596;9.960;2023-10-08T11:48:17;1.87;;;0.88;;
14342;SDS011;7255;53.596;9.960;2023-10-08T11:50:50;2.25;;;1.00;;
14342;SDS011;7255;53.596;9.960;2023-10-08T11:53:17;5.25;;;1.90;;
14342;SDS011;7255;53.596;9.960;2023-10-08T11:55:44;2.65;;;1.23;;
14342;SDS011;7255;53.596;9.960;2023-10-08T11:58:14;2.78;;;1.33;;
14342;SDS011;7255;53.596;9.960;2023-10-08T12:00:45;2.65;;;1.12;;
14342;SDS011;7255;53.596;9.960;2023-10-08T12:03:11;4.35;;;1.30;;
14342;SDS011;7255;53.596;9.960;2023-10-08T12:05:38;2.25;;;1.05;;
14342;SDS011;7255;53.596;9.960;2023-10-08T12:08:12;1.87;;;1.12;;
14342;SDS011;7255;53.596;9.960;2023-10-08T12:10:39;1.80;;;1.05;;
14342;SDS011;7255;53.596;9.960;2023-10-08T12:13:06;1.33;;;0.93;;
14342;SDS011;7255;53.596;9.960;2023-10-08T12:15:33;0.80;;;0.77;;
14342;SDS011;7255;53.596;9.960;2023-10-08T12:18:03;2.00;;;1.23;;
14342;SDS011;7255;53.596;9.960;2023-10-08T12:20:40;0.80;;;0.80;;
14342;SDS011;7255;53.596;9.960;2023-10-08T12:23:09;2.87;;;0.95;;
14342;SDS011;7255;53.596;9.960;2023-10-08T12:25:36;1.00;;;0.90;;
14342;SDS011;7255;53.596;9.960;2023-10-08T12:28:03;3.47;;;0.98;;
14342;SDS011;7255;53.596;9.960;2023-10-08T12:30:30;2.10;;;0.90;;
14342;SDS011;7255;53.596;9.960;2023-10-08T12:32:58;2.42;;;0.95;;
14342;SDS011;7255;53.596;9.960;2023-10-08T12:35:26;4.12;;;1.17;;
14342;SDS011;7255;53.596;9.960;2023-10-08T12:37:54;2.45;;;1.02;;
14342;SDS011;7255;53.596;9.960;2023-10-08T12:40:20;2.35;;;1.05;;
14342;SDS011;7255;53.596;9.960;2023-10-08T12:42:48;2.55;;;1.20;;
14342;SDS011;7255;53.596;9.960;2023-10-08T12:45:15;1.95;;;1.27;;
14342;SDS011;7255;53.596;9.960;2023-10-08T12:47:45;1.02;;;0.90;;
14342;SDS011;7255;53.596;9.960;2023-10-08T12:50:14;1.42;;;0.90;;
14342;SDS011;7255;53.596;9.960;2023-10-08T12:52:41;2.67;;;1.20;;
14342;SDS011;7255;53.596;9.960;2023-10-08T12:55:12;1.33;;;1.00;;
14342;SDS011;7255;53.596;9.960;2023-10-08T12:57:38;2.62;;;1.10;;
14342;SDS011;7255;53.596;9.960;2023-10-08T13:00:07;4.00;;;1.35;;
14342;SDS011;7255;53.596;9.960;2023-10-08T13:02:34;1.33;;;1.23;;
14342;SDS011;7255;53.596;9.960;2023-10-08T13:05:04;2.35;;;1.17;;
14342;SDS011;7255;53.596;9.960;2023-10-08T13:07:42;3.45;;;1.20;;
14342;SDS011;7255;53.596;9.960;2023-10-08T13:10:10;2.15;;;1.08;;
14342;SDS011;7255;53.596;9.960;2023-10-08T13:12:39;1.50;;;1.10;;
14342;SDS011;7255;53.596;9.960;2023-10-08T13:15:07;3.40;;;1.33;;
14342;SDS011;7255;53.596;9.960;2023-10-08T13:17:33;1.50;;;1.15;;
14342;SDS011;7255;53.596;9.960;2023-10-08T13:20:00;1.85;;;1.00;;
14342;SDS011;7255;53.596;9.960;2023-10-08T13:22:27;2.25;;;0.90;;
14342;SDS011;7255;53.596;9.960;2023-10-08T13:24:55;1.30;;;1.02;;
14342;SDS011;7255;53.596;9.960;2023-10-08T13:27:21;2.65;;;1.00;;
14342;SDS011;7255;53.596;9.960;2023-10-08T13:29:49;3.20;;;1.15;;
14342;SDS011;7255;53.596;9.960;2023-10-08T13:32:16;2.33;;;1.05;;
14342;SDS011;7255;53.596;9.960;2023-10-08T13:34:43;1.62;;;1.10;;
14342;SDS011;7255;53.596;9.960;2023-10-08T13:37:09;1.23;;;1.02;;
14342;SDS011;7255;53.596;9.960;2023-10-08T13:39:36;1.42;;;1.30;;
14342;SDS011;7255;53.596;9.960;2023-10-08T13:42:06;2.87;;;0.98;;
14342;SDS011;7255;53.596;9.960;2023-10-08T13:44:33;3.70;;;1.12;;
14342;SDS011;7255;53.596;9.960;2023-10-08T13:47:00;1.08;;;0.98;;
14342;SDS011;7255;53.596;9.960;2023-10-08T13:49:30;1.58;;;1.10;;
14342;SDS011;7255;53.596;9.960;2023-10-08T13:51:57;3.12;;;1.33;;
14342;SDS011;7255;53.596;9.960;2023-10-08T13:54:24;1.30;;;1.00;;
14342;SDS011;7255;53.596;9.960;2023-10-08T13:56:54;3.60;;;1.33;;
14342;SDS011;7255;53.596;9.960;2023-10-08T13:59:21;4.32;;;1.10;;
14342;SDS011;7255;53.596;9.960;2023-10-08T14:01:49;2.10;;;0.90;;
14342;SDS011;7255;53.596;9.960;2023-10-08T14:04:17;3.12;;;1.10;;
14342;SDS011;7255;53.596;9.960;2023-10-08T14:06:45;2.75;;;1.00;;
14342;SDS011;7255;53.596;9.960;2023-10-08T14:09:17;2.20;;;0.95;;
14342;SDS011;7255;53.596;9.960;2023-10-08T14:11:47;2.00;;;1.17;;
14342;SDS011;7255;53.596;9.960;2023-10-08T14:14:15;1.87;;;1.12;;
14342;SDS011;7255;53.596;9.960;2023-10-08T14:16:44;2.22;;;1.17;;
14342;SDS011;7255;53.596;9.960;2023-10-08T14:19:12;2.30;;;1.35;;
14342;SDS011;7255;53.596;9.960;2023-10-08T14:21:39;0.90;;;0.90;;
14342;SDS011;7255;53.596;9.960;2023-10-08T14:24:14;3.70;;;1.30;;
14342;SDS011;7255;53.596;9.960;2023-10-08T14:26:41;2.37;;;1.05;;
14342;SDS011;7255;53.596;9.960;2023-10-08T14:29:08;1.92;;;1.00;;
14342;SDS011;7255;53.596;9.960;2023-10-08T14:31:35;1.60;;;1.00;;
14342;SDS011;7255;53.596;9.960;2023-10-08T14:34:05;4.12;;;0.98;;
14342;SDS011;7255;53.596;9.960;2023-10-08T14:36:44;3.78;;;1.33;;
14342;SDS011;7255;53.596;9.960;2023-10-08T14:39:27;1.90;;;0.80;;
14342;SDS011;7255;53.596;9.960;2023-10-08T14:42:12;1.02;;;1.00;;
14342;SDS011;7255;53.596;9.960;2023-10-08T14:44:56;1.25;;;0.93;;
14342;SDS011;7255;53.596;9.960;2023-10-08T14:47:22;1.35;;;0.85;;
14342;SDS011;7255;53.596;9.960;2023-10-08T14:49:50;2.15;;;1.17;;
14342;SDS011;7255;53.596;9.960;2023-10-08T14:52:17;2.45;;;1.05;;
14342;SDS011;7255;53.596;9.960;2023-10-08T14:54:43;1.12;;;1.00;;
14342;SDS011;7255;53.596;9.960;2023-10-08T14:57:10;1.95;;;1.10;;
14342;SDS011;7255;53.596;9.960;2023-10-08T14:59:38;1.35;;;1.00;;
14342;SDS011;7255;53.596;9.960;2023-10-08T15:02:04;1.83;;;1.25;;
14342;SDS011;7255;53.596;9.960;2023-10-08T15:04:32;1.77;;;1.10;;
14342;SDS011;7255;53.596;9.960;2023-10-08T15:07:02;1.70;;;1.27;;
14342;SDS011;7255;53.596;9.960;2023-10-08T15:09:28;1.65;;;1.08;;
14342;SDS011;7255;53.596;9.960;2023-10-08T15:11:55;1.48;;;1.10;;
14342;SDS011;7255;53.596;9.960;2023-10-08T15:14:23;1.98;;;1.15;;
14342;SDS011;7255;53.596;9.960;2023-10-08T15:16:49;1.17;;;0.90;;
14342;SDS011;7255;53.596;9.960;2023-10-08T15:19:18;1.50;;;1.17;;